Time;durP1;ratioP1;P1;durP2;ratioP2;P2;SDS_P1;SDS_P2;PMS_P1;PMS_P2;Temp;Humidity;BMP_temperature;BMP_pressure;BME280_temperature;BME280_humidity;BME280_pressure;Samples;Min_cycle;Max_cycle;Signal;HPM_P1;HPM_P2
2021/06/05 00:00:56;;;;;;;2.70;2.50;;;;;;;;;;5060655;28;20083;-81
2021/06/05 00:03:23;;;;;;;3.65;2.05;;;;;;;;;;5061039;28;20178;-81
2021/06/05 00:05:53;;;;;;;2.22;2.08;;;;;;;;;;5060607;28;20021;-81
2021/06/05 00:08:21;;;;;;;2.10;2.00;;;;;;;;;;5061172;28;20025;-81
2021/06/05 00:10:49;;;;;;;2.20;2.10;;;;;;;;;;5061429;28;20473;-81
2021/06/05 00:13:17;;;;;;;2.20;2.00;;;;;;;;;;5060299;28;20432;-81
2021/06/05 00:15:44;;;;;;;2.33;2.20;;;;;;;;;;5060851;28;20057;-81
2021/06/05 00:18:11;;;;;;;2.97;2.67;;;;;;;;;;5070092;28;20055;-81
2021/06/05 00:20:38;;;;;;;2.10;1.98;;;;;;;;;;5071049;28;20052;-81
2021/06/05 00:23:06;;;;;;;2.72;2.53;;;;;;;;;;5061236;28;20106;-81
2021/06/05 00:25:32;;;;;;;3.30;3.00;;;;;;;;;;5060409;28;20033;-80
2021/06/05 00:27:59;;;;;;;6.95;3.22;;;;;;;;;;5060471;28;20048;-80
2021/06/05 00:30:25;;;;;;;5.05;4.28;;;;;;;;;;5059217;28;20100;-80
2021/06/05 00:32:52;;;;;;;4.45;3.78;;;;;;;;;;5061153;28;20032;-81
2021/06/05 00:35:19;;;;;;;5.13;3.65;;;;;;;;;;5061826;28;20060;-81
2021/06/05 00:37:45;;;;;;;4.10;3.70;;;;;;;;;;5061175;28;20025;-80
2021/06/05 00:40:12;;;;;;;3.50;3.20;;;;;;;;;;5068562;28;20029;-80
2021/06/05 00:42:38;;;;;;;3.22;2.95;;;;;;;;;;5067343;28;20036;-81
2021/06/05 00:45:06;;;;;;;3.50;3.20;;;;;;;;;;5068702;28;20064;-80
2021/06/05 00:47:32;;;;;;;5.35;3.67;;;;;;;;;;5070375;28;20025;-81
2021/06/05 00:49:58;;;;;;;3.17;2.88;;;;;;;;;;5066161;28;20040;-81
2021/06/05 00:52:26;;;;;;;4.22;3.80;;;;;;;;;;5062587;28;20024;-80
2021/06/05 00:54:53;;;;;;;4.32;3.92;;;;;;;;;;5062344;28;20047;-80
2021/06/05 00:57:19;;;;;;;4.38;3.97;;;;;;;;;;5062093;28;20420;-79
2021/06/05 00:59:45;;;;;;;4.78;4.38;;;;;;;;;;5057742;28;20079;-79
2021/06/05 01:02:11;;;;;;;5.05;4.47;;;;;;;;;;5057795;28;20029;-79
2021/06/05 01:04:38;;;;;;;3.95;3.55;;;;;;;;;;5057272;28;20045;-81
2021/06/05 01:07:23;;;;;;;5.63;5.13;;;;;;;;;;5061589;28;20107;-81
2021/06/05 01:10:00;;;;;;;5.68;5.18;;;;;;;;;;5060446;28;20033;-79
2021/06/05 01:12:48;;;;;;;6.40;4.88;;;;;;;;;;5062617;28;20440;-79
2021/06/05 01:15:26;;;;;;;5.25;4.75;;;;;;;;;;5079892;22;20445;-81
2021/06/05 01:17:55;;;;;;;5.30;4.80;;;;;;;;;;5049401;28;20108;-81
2021/06/05 01:20:47;;;;;;;4.43;4.03;;;;;;;;;;5044086;28;20025;-81
2021/06/05 01:23:23;;;;;;;4.78;3.80;;;;;;;;;;5039967;28;20052;-81
2021/06/05 01:26:07;;;;;;;5.85;3.92;;;;;;;;;;5041302;28;20044;-81
2021/06/05 01:28:36;;;;;;;3.60;3.30;;;;;;;;;;5052331;28;20033;-80
2021/06/05 01:31:05;;;;;;;3.00;2.80;;;;;;;;;;5083782;28;20032;-81
2021/06/05 01:33:33;;;;;;;4.03;3.58;;;;;;;;;;5093850;28;20029;-81
2021/06/05 01:35:59;;;;;;;3.53;3.20;;;;;;;;;;5079769;28;20024;-79
2021/06/05 01:38:26;;;;;;;4.00;3.53;;;;;;;;;;5083433;28;20025;-80
2021/06/05 01:40:54;;;;;;;3.45;3.15;;;;;;;;;;5091596;28;20060;-80
2021/06/05 01:43:22;;;;;;;4.28;3.90;;;;;;;;;;5082155;28;20035;-80
2021/06/05 01:45:49;;;;;;;4.82;3.83;;;;;;;;;;5079684;28;20365;-81
2021/06/05 01:48:15;;;;;;;2.90;2.70;;;;;;;;;;5083286;28;20024;-79
2021/06/05 01:50:43;;;;;;;4.53;3.00;;;;;;;;;;5095465;28;20048;-79
2021/06/05 01:53:15;;;;;;;4.18;3.00;;;;;;;;;;5093956;28;20021;-81
2021/06/05 01:56:01;;;;;;;4.35;3.33;;;;;;;;;;5079462;28;20031;-81
2021/06/05 01:58:29;;;;;;;3.30;3.03;;;;;;;;;;5078792;28;20016;-80
2021/06/05 02:00:56;;;;;;;4.28;3.75;;;;;;;;;;5068259;28;20032;-81
2021/06/05 02:03:22;;;;;;;7.40;4.03;;;;;;;;;;5079404;28;20028;-81
2021/06/05 02:05:48;;;;;;;4.22;3.60;;;;;;;;;;5079991;28;20076;-81
2021/06/05 02:08:16;;;;;;;4.13;3.83;;;;;;;;;;5079788;28;20675;-81
2021/06/05 02:10:43;;;;;;;4.50;3.70;;;;;;;;;;5079100;28;20048;-81
2021/06/05 02:13:16;;;;;;;4.63;3.90;;;;;;;;;;5077549;28;20035;-81
2021/06/05 02:15:53;;;;;;;5.32;4.55;;;;;;;;;;5079021;28;20036;-81
2021/06/05 02:18:26;;;;;;;4.45;3.67;;;;;;;;;;5078417;28;20032;-81
2021/06/05 02:21:04;;;;;;;4.20;3.80;;;;;;;;;;5078990;28;20050;-81
2021/06/05 02:23:46;;;;;;;4.97;4.57;;;;;;;;;;5079032;28;20027;-81
2021/06/05 02:26:14;;;;;;;5.13;4.55;;;;;;;;;;5076893;28;20021;-81
2021/06/05 02:28:40;;;;;;;5.97;5.47;;;;;;;;;;5077494;28;20488;-81
2021/06/05 02:31:08;;;;;;;5.70;5.20;;;;;;;;;;5069245;28;20029;-81
2021/06/05 02:33:36;;;;;;;8.18;5.97;;;;;;;;;;5079253;28;20051;-81
2021/06/05 02:36:02;;;;;;;7.70;4.97;;;;;;;;;;5073826;28;20028;-80
2021/06/05 02:38:29;;;;;;;6.55;5.95;;;;;;;;;;5076696;28;20051;-81
2021/06/05 02:40:55;;;;;;;7.57;6.32;;;;;;;;;;5084320;28;20029;-81
2021/06/05 02:43:23;;;;;;;7.13;6.43;;;;;;;;;;5091210;28;20508;-81
2021/06/05 02:45:59;;;;;;;6.50;5.93;;;;;;;;;;5093000;28;20017;-81
2021/06/05 02:48:37;;;;;;;7.57;6.78;;;;;;;;;;5084155;28;20025;-81
2021/06/05 02:51:03;;;;;;;8.23;7.43;;;;;;;;;;5079905;28;20093;-82
2021/06/05 02:53:29;;;;;;;7.55;6.82;;;;;;;;;;5077501;28;20028;-81
2021/06/05 02:55:55;;;;;;;10.07;8.75;;;;;;;;;;5078804;28;20040;-81
2021/06/05 02:58:21;;;;;;;8.20;7.38;;;;;;;;;;5078391;28;20040;-81
2021/06/05 03:00:48;;;;;;;7.55;6.50;;;;;;;;;;5068698;28;20099;-81
2021/06/05 03:03:15;;;;;;;8.15;7.15;;;;;;;;;;5076782;28;20021;-81
2021/06/05 03:05:42;;;;;;;6.60;5.90;;;;;;;;;;5077813;28;20028;-81
2021/06/05 03:08:10;;;;;;;8.80;7.32;;;;;;;;;;5076709;28;20039;-81
2021/06/05 03:10:36;;;;;;;8.43;7.63;;;;;;;;;;5076788;28;20025;-82
2021/06/05 03:13:03;;;;;;;8.52;7.72;;;;;;;;;;5079417;28;20114;-81
2021/06/05 03:15:29;;;;;;;9.23;8.32;;;;;;;;;;5086748;28;20047;-81
2021/06/05 03:17:56;;;;;;;9.82;8.65;;;;;;;;;;5091822;28;20027;-80
2021/06/05 03:20:24;;;;;;;8.90;8.00;;;;;;;;;;5090666;28;20066;-80
2021/06/05 03:22:51;;;;;;;8.38;7.57;;;;;;;;;;5081904;28;20031;-80
2021/06/05 03:25:18;;;;;;;9.40;8.45;;;;;;;;;;5080219;28;20021;-80
2021/06/05 03:27:44;;;;;;;7.10;6.47;;;;;;;;;;5081370;28;20024;-80
2021/06/05 03:30:12;;;;;;;7.68;6.53;;;;;;;;;;5076615;28;20031;-80
2021/06/05 03:32:38;;;;;;;11.30;7.88;;;;;;;;;;5083818;28;20073;-80
2021/06/05 03:35:05;;;;;;;7.78;6.35;;;;;;;;;;5094549;28;20047;-80
2021/06/05 03:37:31;;;;;;;7.43;6.05;;;;;;;;;;5083860;28;20119;-82
2021/06/05 03:39:57;;;;;;;6.75;5.55;;;;;;;;;;5089122;28;20032;-80
2021/06/05 03:42:23;;;;;;;7.80;6.00;;;;;;;;;;5082185;28;20465;-81
2021/06/05 03:44:49;;;;;;;6.35;5.38;;;;;;;;;;5082567;28;20024;-81
2021/06/05 03:47:19;;;;;;;9.35;6.75;;;;;;;;;;5081416;28;20031;-81
2021/06/05 03:49:45;;;;;;;6.97;6.05;;;;;;;;;;5081470;28;20388;-83
2021/06/05 03:52:11;;;;;;;7.18;6.32;;;;;;;;;;5079934;28;20275;-81
2021/06/05 03:54:37;;;;;;;15.07;6.50;;;;;;;;;;5079129;28;20275;-81
2021/06/05 03:57:03;;;;;;;6.28;4.85;;;;;;;;;;5080984;28;20054;-81
2021/06/05 03:59:29;;;;;;;6.70;6.00;;;;;;;;;;5078400;28;20027;-80
2021/06/05 04:01:57;;;;;;;6.25;5.70;;;;;;;;;;5072816;28;20072;-81
2021/06/05 04:04:23;;;;;;;6.43;5.30;;;;;;;;;;5085943;28;20022;-80
2021/06/05 04:06:50;;;;;;;5.15;4.65;;;;;;;;;;5091688;28;20782;-81
2021/06/05 04:09:17;;;;;;;6.20;5.32;;;;;;;;;;5081330;28;20034;-81
2021/06/05 04:11:43;;;;;;;5.32;4.82;;;;;;;;;;5079324;28;20047;-81
2021/06/05 04:14:10;;;;;;;4.47;4.18;;;;;;;;;;5080062;28;20119;-81
2021/06/05 04:16:36;;;;;;;5.03;4.63;;;;;;;;;;5079816;28;20485;-81
2021/06/05 04:19:02;;;;;;;8.15;4.30;;;;;;;;;;5080342;28;20032;-81
2021/06/05 04:21:28;;;;;;;5.15;4.65;;;;;;;;;;5080495;28;20024;-81
2021/06/05 04:23:54;;;;;;;6.50;4.95;;;;;;;;;;5078915;28;20017;-80
2021/06/05 04:26:21;;;;;;;6.53;4.80;;;;;;;;;;5080602;28;20024;-81
2021/06/05 04:28:47;;;;;;;6.82;4.80;;;;;;;;;;5079460;28;20024;-81
2021/06/05 04:31:13;;;;;;;4.90;4.28;;;;;;;;;;5072880;28;20021;-81
2021/06/05 04:33:40;;;;;;;7.80;4.43;;;;;;;;;;5080315;28;20025;-81
2021/06/05 04:36:08;;;;;;;5.18;4.68;;;;;;;;;;5081729;28;20029;-81
2021/06/05 04:38:35;;;;;;;6.18;5.22;;;;;;;;;;5080865;28;20044;-81
2021/06/05 04:41:01;;;;;;;4.70;4.28;;;;;;;;;;5081522;28;20385;-81
2021/06/05 04:43:27;;;;;;;5.18;4.68;;;;;;;;;;5094115;28;20120;-80
2021/06/05 04:45:54;;;;;;;4.88;4.40;;;;;;;;;;5089062;28;20040;-81
2021/06/05 04:48:20;;;;;;;7.75;4.82;;;;;;;;;;5079483;28;20024;-81
2021/06/05 04:50:46;;;;;;;9.25;4.22;;;;;;;;;;5080746;28;20385;-81
2021/06/05 04:53:12;;;;;;;6.13;3.90;;;;;;;;;;5079726;28;20036;-81
2021/06/05 04:55:39;;;;;;;4.82;3.92;;;;;;;;;;5079782;28;20028;-81
2021/06/05 04:58:05;;;;;;;5.00;3.92;;;;;;;;;;5079567;28;20074;-80
2021/06/05 05:00:34;;;;;;;4.72;3.38;;;;;;;;;;5086907;28;20033;-80
2021/06/05 05:03:00;;;;;;;6.63;4.05;;;;;;;;;;5093460;28;20038;-80
2021/06/05 05:05:27;;;;;;;6.45;3.70;;;;;;;;;;5095036;28;20012;-80
2021/06/05 05:07:54;;;;;;;3.17;2.88;;;;;;;;;;5093901;28;20021;-80
2021/06/05 05:10:21;;;;;;;3.40;2.53;;;;;;;;;;5094728;28;20005;-80
2021/06/05 05:12:47;;;;;;;2.90;2.17;;;;;;;;;;5095115;28;20092;-81
2021/06/05 05:15:14;;;;;;;2.05;1.88;;;;;;;;;;5082497;28;20040;-81
2021/06/05 05:17:40;;;;;;;1.95;1.75;;;;;;;;;;5080706;28;20024;-81
2021/06/05 05:20:09;;;;;;;2.00;1.90;;;;;;;;;;5093311;28;20029;-79
2021/06/05 05:22:36;;;;;;;1.83;1.73;;;;;;;;;;5083191;28;20369;-79
2021/06/05 05:25:02;;;;;;;1.80;1.40;;;;;;;;;;5078995;28;20119;-80
2021/06/05 05:27:28;;;;;;;1.98;1.45;;;;;;;;;;5079363;28;20023;-80
2021/06/05 05:29:54;;;;;;;1.70;1.60;;;;;;;;;;5075124;28;20025;-79
2021/06/05 05:32:20;;;;;;;1.67;1.40;;;;;;;;;;5071280;28;20078;-80
2021/06/05 05:34:47;;;;;;;1.48;1.40;;;;;;;;;;5078070;28;20082;-80
2021/06/05 05:37:13;;;;;;;1.80;1.42;;;;;;;;;;5079829;28;20020;-80
2021/06/05 05:39:39;;;;;;;1.50;1.40;;;;;;;;;;5080007;28;20107;-80
2021/06/05 05:42:05;;;;;;;1.27;1.17;;;;;;;;;;5079808;28;20453;-80
2021/06/05 05:44:31;;;;;;;1.50;1.30;;;;;;;;;;5080205;28;20028;-81
2021/06/05 05:46:57;;;;;;;1.00;1.00;;;;;;;;;;5079781;28;20051;-79
2021/06/05 05:49:25;;;;;;;0.98;0.98;;;;;;;;;;5077107;28;20024;-80
2021/06/05 05:51:51;;;;;;;2.00;1.90;;;;;;;;;;5080470;28;20028;-80
2021/06/05 05:54:17;;;;;;;1.27;1.17;;;;;;;;;;5088248;28;20118;-79
2021/06/05 05:56:43;;;;;;;3.20;1.42;;;;;;;;;;5082326;28;20028;-79
2021/06/05 05:59:09;;;;;;;1.42;1.25;;;;;;;;;;5077338;28;20024;-80
2021/06/05 06:01:35;;;;;;;1.13;1.13;;;;;;;;;;5071746;28;20022;-80
2021/06/05 06:04:01;;;;;;;2.75;1.33;;;;;;;;;;5078707;28;20020;-80
2021/06/05 06:06:31;;;;;;;1.20;1.20;;;;;;;;;;5078318;28;20040;-80
2021/06/05 06:08:57;;;;;;;2.67;1.55;;;;;;;;;;5088110;28;20017;-80
2021/06/05 06:11:24;;;;;;;2.92;1.38;;;;;;;;;;5089023;28;20035;-79
2021/06/05 06:13:50;;;;;;;2.85;0.90;;;;;;;;;;5074121;28;20025;-80
2021/06/05 06:16:17;;;;;;;4.70;1.15;;;;;;;;;;5076089;28;20028;-80
2021/06/05 06:18:44;;;;;;;2.50;1.30;;;;;;;;;;5074481;28;20103;-79
2021/06/05 06:21:11;;;;;;;3.72;1.52;;;;;;;;;;5074954;28;20108;-80
2021/06/05 06:23:39;;;;;;;1.30;1.15;;;;;;;;;;5073759;28;20492;-80
2021/06/05 06:26:07;;;;;;;1.10;1.00;;;;;;;;;;5076425;28;20426;-79
2021/06/05 06:28:35;;;;;;;1.13;1.02;;;;;;;;;;5077094;28;20021;-81
2021/06/05 06:31:01;;;;;;;1.08;1.08;;;;;;;;;;5064685;28;20478;-81
2021/06/05 06:33:28;;;;;;;1.00;1.00;;;;;;;;;;5062592;28;20039;-80
2021/06/05 06:35:54;;;;;;;1.15;1.10;;;;;;;;;;5059792;28;20020;-81
2021/06/05 06:38:26;;;;;;;0.73;0.73;;;;;;;;;;5057771;28;20032;-80
2021/06/05 06:40:52;;;;;;;1.33;1.00;;;;;;;;;;5058089;28;20507;-81
2021/06/05 06:43:20;;;;;;;1.00;1.00;;;;;;;;;;5057830;28;20040;-82
2021/06/05 06:45:46;;;;;;;1.20;1.10;;;;;;;;;;5058066;28;20049;-79
2021/06/05 06:48:13;;;;;;;1.77;1.08;;;;;;;;;;5060055;28;20353;-80
2021/06/05 06:50:39;;;;;;;2.05;0.90;;;;;;;;;;5062456;28;20043;-79
2021/06/05 06:53:05;;;;;;;0.80;0.80;;;;;;;;;;5062214;28;20029;-80
2021/06/05 06:55:31;;;;;;;2.25;1.05;;;;;;;;;;5066880;28;20029;-80
2021/06/05 06:57:58;;;;;;;0.93;0.85;;;;;;;;;;5070824;28;20484;-81
2021/06/05 07:00:27;;;;;;;1.02;1.00;;;;;;;;;;5078730;28;20025;-81
2021/06/05 07:02:53;;;;;;;0.80;0.70;;;;;;;;;;5061577;28;20166;-80
2021/06/05 07:05:19;;;;;;;1.15;0.85;;;;;;;;;;5060385;28;20029;-81
2021/06/05 07:07:45;;;;;;;1.10;1.00;;;;;;;;;;5060343;28;20052;-79
2021/06/05 07:10:13;;;;;;;0.80;0.80;;;;;;;;;;5058100;28;20047;-80
2021/06/05 07:12:39;;;;;;;0.88;0.63;;;;;;;;;;5060103;28;20024;-80
2021/06/05 07:15:06;;;;;;;0.77;0.70;;;;;;;;;;5081359;22;20044;-78
2021/06/05 07:17:32;;;;;;;0.88;0.80;;;;;;;;;;5044325;28;20025;-78
2021/06/05 07:19:58;;;;;;;0.80;0.60;;;;;;;;;;5043958;28;20033;-78
2021/06/05 07:22:24;;;;;;;0.88;0.88;;;;;;;;;;5042586;28;20021;-79
2021/06/05 07:24:50;;;;;;;0.70;0.70;;;;;;;;;;5045018;28;20039;-79
2021/06/05 07:27:17;;;;;;;0.70;0.70;;;;;;;;;;5061460;28;20025;-77
2021/06/05 07:29:43;;;;;;;0.95;0.80;;;;;;;;;;5067546;28;20036;-79
2021/06/05 07:32:09;;;;;;;0.60;0.60;;;;;;;;;;5059680;28;20098;-78
2021/06/05 07:34:35;;;;;;;1.88;1.02;;;;;;;;;;5065681;28;20029;-78
2021/06/05 07:37:04;;;;;;;1.08;0.88;;;;;;;;;;5066203;28;20029;-77
2021/06/05 07:39:30;;;;;;;1.08;0.60;;;;;;;;;;5066168;28;20116;-78
2021/06/05 07:41:59;;;;;;;1.15;0.60;;;;;;;;;;5067282;28;20029;-77
2021/06/05 07:44:26;;;;;;;0.98;0.65;;;;;;;;;;5066830;28;20499;-77
2021/06/05 07:46:57;;;;;;;2.38;1.00;;;;;;;;;;5069289;28;20074;-79
2021/06/05 07:49:28;;;;;;;3.17;0.87;;;;;;;;;;5066429;28;20032;-78
2021/06/05 07:51:54;;;;;;;1.02;1.00;;;;;;;;;;5065503;28;20033;-79
2021/06/05 07:54:20;;;;;;;0.60;0.60;;;;;;;;;;5063511;28;20031;-79
2021/06/05 07:56:49;;;;;;;0.82;0.70;;;;;;;;;;5064448;28;20512;-80
2021/06/05 07:59:16;;;;;;;0.85;0.85;;;;;;;;;;5077547;28;20135;-79
2021/06/05 08:01:43;;;;;;;1.10;0.80;;;;;;;;;;5055005;28;20040;-79
2021/06/05 08:04:09;;;;;;;2.88;0.73;;;;;;;;;;5067252;28;20012;-77
2021/06/05 08:06:35;;;;;;;0.95;0.70;;;;;;;;;;5077489;28;20049;-77
2021/06/05 08:09:01;;;;;;;1.17;0.90;;;;;;;;;;5068938;28;20049;-78
2021/06/05 08:11:27;;;;;;;1.05;0.77;;;;;;;;;;5065040;28;20116;-78
2021/06/05 08:13:53;;;;;;;1.35;0.80;;;;;;;;;;5062499;28;20029;-78
2021/06/05 08:16:20;;;;;;;1.05;1.05;;;;;;;;;;5062841;28;20116;-77
2021/06/05 08:18:46;;;;;;;0.52;0.52;;;;;;;;;;5065097;28;20029;-77
2021/06/05 08:21:13;;;;;;;0.73;0.70;;;;;;;;;;5066601;28;20401;-77
2021/06/05 08:23:40;;;;;;;1.27;0.55;;;;;;;;;;5077814;28;20025;-77
2021/06/05 08:26:07;;;;;;;0.80;0.80;;;;;;;;;;5078073;28;20021;-76
2021/06/05 08:28:33;;;;;;;0.90;0.80;;;;;;;;;;5064388;28;20032;-77
2021/06/05 08:31:01;;;;;;;1.23;0.98;;;;;;;;;;5055532;28;20111;-77
2021/06/05 08:33:28;;;;;;;0.85;0.70;;;;;;;;;;5044272;28;20089;-78
2021/06/05 08:35:54;;;;;;;1.05;0.77;;;;;;;;;;5060756;28;20052;-78
2021/06/05 08:38:25;;;;;;;1.05;0.82;;;;;;;;;;5059179;28;20025;-77
2021/06/05 08:41:00;;;;;;;1.42;0.70;;;;;;;;;;5043345;28;20031;-78
2021/06/05 08:43:38;;;;;;;2.33;0.70;;;;;;;;;;5041743;28;20489;-79
2021/06/05 08:46:05;;;;;;;1.92;0.80;;;;;;;;;;5057475;28;20048;-79
2021/06/05 08:48:31;;;;;;;0.93;0.60;;;;;;;;;;5041991;28;20064;-78
2021/06/05 08:51:03;;;;;;;1.52;0.77;;;;;;;;;;5042495;28;20030;-79
2021/06/05 08:53:30;;;;;;;2.67;0.70;;;;;;;;;;5042305;28;20110;-79
2021/06/05 08:55:58;;;;;;;0.75;0.70;;;;;;;;;;5042274;28;20025;-79
2021/06/05 08:58:30;;;;;;;1.35;1.15;;;;;;;;;;5058584;28;20060;-79
2021/06/05 09:00:58;;;;;;;1.75;0.75;;;;;;;;;;5065471;28;20032;-79
2021/06/05 09:03:25;;;;;;;0.52;0.50;;;;;;;;;;5076871;28;20044;-79
2021/06/05 09:05:56;;;;;;;1.20;0.98;;;;;;;;;;5062160;28;20048;-79
2021/06/05 09:08:23;;;;;;;0.70;0.60;;;;;;;;;;5062328;28;20025;-79
2021/06/05 09:10:49;;;;;;;1.67;0.60;;;;;;;;;;5081027;28;20124;-80
2021/06/05 09:13:16;;;;;;;1.40;0.63;;;;;;;;;;5070429;28;20029;-79
2021/06/05 09:15:42;;;;;;;1.02;0.70;;;;;;;;;;5068262;28;20043;-78
2021/06/05 09:18:10;;;;;;;0.90;0.90;;;;;;;;;;5067010;28;20035;-79
2021/06/05 09:20:41;;;;;;;0.55;0.55;;;;;;;;;;5062022;28;20024;-80
2021/06/05 09:23:27;;;;;;;4.50;1.27;;;;;;;;;;5062675;28;20029;-78
2021/06/05 09:25:55;;;;;;;1.08;0.85;;;;;;;;;;5060826;28;20048;-77
2021/06/05 09:28:21;;;;;;;1.10;0.70;;;;;;;;;;5077120;28;20033;-79
2021/06/05 09:30:48;;;;;;;3.20;1.13;;;;;;;;;;5069388;28;20055;-79
2021/06/05 09:33:27;;;;;;;1.27;0.80;;;;;;;;;;5059840;28;20021;-78
2021/06/05 09:36:11;;;;;;;9.30;1.08;;;;;;;;;;5062359;28;20029;-78
2021/06/05 09:38:38;;;;;;;1.85;0.82;;;;;;;;;;5060975;28;20043;-78
2021/06/05 09:41:07;;;;;;;0.60;0.60;;;;;;;;;;5076309;28;20047;-79
2021/06/05 09:43:34;;;;;;;0.68;0.68;;;;;;;;;;5060210;28;20036;-78
2021/06/05 09:46:08;;;;;;;0.77;0.60;;;;;;;;;;5076362;28;20029;-78
2021/06/05 09:48:36;;;;;;;0.75;0.70;;;;;;;;;;5061871;28;20086;-77
2021/06/05 09:51:05;;;;;;;0.65;0.50;;;;;;;;;;5061859;28;20050;-78
2021/06/05 09:53:36;;;;;;;2.55;1.20;;;;;;;;;;5062370;28;20029;-78
2021/06/05 09:56:22;;;;;;;2.40;0.70;;;;;;;;;;5061102;28;20027;-78
2021/06/05 09:58:59;;;;;;;1.27;0.52;;;;;;;;;;5059165;28;20032;-77
2021/06/05 10:01:27;;;;;;;0.85;0.70;;;;;;;;;;5048804;28;20030;-78
2021/06/05 10:03:57;;;;;;;0.55;0.55;;;;;;;;;;5040735;28;20021;-78
2021/06/05 10:06:43;;;;;;;0.82;0.70;;;;;;;;;;5041463;28;20021;-79
2021/06/05 10:09:19;;;;;;;2.90;0.50;;;;;;;;;;5055764;28;20480;-79
2021/06/05 10:11:46;;;;;;;3.22;0.70;;;;;;;;;;5040453;28;20116;-78
2021/06/05 10:14:16;;;;;;;0.68;0.50;;;;;;;;;;5041413;28;20040;-78
2021/06/05 10:16:47;;;;;;;2.55;0.70;;;;;;;;;;5043134;28;20398;-78
2021/06/05 10:19:32;;;;;;;1.67;0.70;;;;;;;;;;5041413;28;20030;-79
2021/06/05 10:21:58;;;;;;;4.15;1.25;;;;;;;;;;5041009;28;20393;-79
2021/06/05 10:24:29;;;;;;;0.93;0.93;;;;;;;;;;5042607;28;20053;-78
2021/06/05 10:27:01;;;;;;;1.73;0.60;;;;;;;;;;5070641;28;20022;-79
2021/06/05 10:29:28;;;;;;;0.88;0.60;;;;;;;;;;5047358;28;20259;-78
2021/06/05 10:31:54;;;;;;;2.08;1.15;;;;;;;;;;5065483;28;20025;-78
2021/06/05 10:34:41;;;;;;;1.00;0.82;;;;;;;;;;5073164;28;20017;-79
2021/06/05 10:37:12;;;;;;;1.05;1.00;;;;;;;;;;5072314;28;20025;-78
2021/06/05 10:39:43;;;;;;;0.90;0.80;;;;;;;;;;5086373;28;20037;-79
2021/06/05 10:42:28;;;;;;;0.80;0.80;;;;;;;;;;5062574;28;20078;-80
2021/06/05 10:44:55;;;;;;;0.98;0.73;;;;;;;;;;5060683;28;20477;-78
2021/06/05 10:47:21;;;;;;;0.50;0.50;;;;;;;;;;5061172;28;20021;-78
2021/06/05 10:49:51;;;;;;;0.95;0.68;;;;;;;;;;5061222;28;20093;-79
2021/06/05 10:52:17;;;;;;;0.98;0.88;;;;;;;;;;5062181;28;20067;-79
2021/06/05 10:54:53;;;;;;;1.13;0.77;;;;;;;;;;5076263;28;20029;-78
2021/06/05 10:57:19;;;;;;;1.95;0.65;;;;;;;;;;5060592;28;20460;-79
2021/06/05 10:59:51;;;;;;;1.63;0.70;;;;;;;;;;5076022;28;20036;-78
2021/06/05 11:02:38;;;;;;;0.73;0.68;;;;;;;;;;5067010;28;20060;-77
2021/06/05 11:05:32;;;;;;;1.35;0.70;;;;;;;;;;5066760;28;20029;-78
2021/06/05 11:08:11;;;;;;;0.63;0.63;;;;;;;;;;5078632;28;20438;-79
2021/06/05 11:10:55;;;;;;;1.30;0.45;;;;;;;;;;5061001;28;20036;-80
2021/06/05 11:13:37;;;;;;;1.73;0.80;;;;;;;;;;5059454;28;20354;-80
2021/06/05 11:16:07;;;;;;;0.73;0.70;;;;;;;;;;5060085;28;20040;-78
2021/06/05 11:18:37;;;;;;;1.70;0.50;;;;;;;;;;5075715;28;20053;-78
2021/06/05 11:21:24;;;;;;;1.20;0.80;;;;;;;;;;5059117;28;20029;-78
2021/06/05 11:23:56;;;;;;;0.65;0.60;;;;;;;;;;5054666;28;20033;-78
2021/06/05 11:26:35;;;;;;;1.10;0.70;;;;;;;;;;5075138;28;20108;-78
2021/06/05 11:29:21;;;;;;;0.70;0.70;;;;;;;;;;5057201;28;20081;-78
2021/06/05 11:31:49;;;;;;;0.70;0.70;;;;;;;;;;5012519;28;20041;-78
2021/06/05 11:34:34;;;;;;;1.33;0.65;;;;;;;;;;5062618;28;20485;-79
2021/06/05 11:37:06;;;;;;;0.82;0.60;;;;;;;;;;5064388;28;20024;-78
2021/06/05 11:39:32;;;;;;;1.38;0.63;;;;;;;;;;5063828;28;20029;-79
2021/06/05 11:42:05;;;;;;;2.67;0.70;;;;;;;;;;5063473;28;20112;-79
2021/06/05 11:44:31;;;;;;;1.55;1.10;;;;;;;;;;5078401;28;20112;-79
2021/06/05 11:47:16;;;;;;;1.85;1.20;;;;;;;;;;5065137;28;20029;-78
2021/06/05 11:49:42;;;;;;;0.90;0.80;;;;;;;;;;5064920;28;20508;-79
2021/06/05 11:52:27;;;;;;;1.60;0.85;;;;;;;;;;5065765;28;20028;-78
2021/06/05 11:55:04;;;;;;;1.13;0.95;;;;;;;;;;5078153;28;20009;-78
2021/06/05 11:57:38;;;;;;;1.20;0.93;;;;;;;;;;5083911;28;20021;-78
2021/06/05 12:00:06;;;;;;;0.70;0.70;;;;;;;;;;5072358;28;20281;-78
2021/06/05 12:02:35;;;;;;;1.25;0.80;;;;;;;;;;5066883;28;20021;-78
2021/06/05 12:05:13;;;;;;;0.75;0.75;;;;;;;;;;5060166;28;20080;-78
2021/06/05 12:07:43;;;;;;;1.25;0.70;;;;;;;;;;5045598;28;20025;-78
2021/06/05 12:10:10;;;;;;;2.05;0.93;;;;;;;;;;5060426;28;20026;-78
2021/06/05 12:12:39;;;;;;;2.22;0.95;;;;;;;;;;5059260;28;20041;-78
2021/06/05 12:15:10;;;;;;;0.65;0.65;;;;;;;;;;5056692;28;20420;-77
2021/06/05 12:17:43;;;;;;;2.42;0.90;;;;;;;;;;5056472;28;20060;-78
2021/06/05 12:20:15;;;;;;;0.60;0.60;;;;;;;;;;5041206;28;20037;-77
2021/06/05 12:22:43;;;;;;;0.60;0.60;;;;;;;;;;5040849;28;20029;-79
2021/06/05 12:25:23;;;;;;;2.28;0.80;;;;;;;;;;5041624;28;20032;-79
2021/06/05 12:27:49;;;;;;;1.08;0.60;;;;;;;;;;5041580;28;20045;-78
2021/06/05 12:30:26;;;;;;;0.63;0.50;;;;;;;;;;5063455;28;20529;-79
2021/06/05 12:33:03;;;;;;;0.60;0.60;;;;;;;;;;5058203;28;20393;-78
2021/06/05 12:35:34;;;;;;;0.95;0.70;;;;;;;;;;5078908;28;20021;-78
2021/06/05 12:38:01;;;;;;;1.85;0.45;;;;;;;;;;5063490;28;20048;-78
2021/06/05 12:40:50;;;;;;;0.38;0.38;;;;;;;;;;5078167;28;20029;-79
2021/06/05 12:43:18;;;;;;;1.33;0.40;;;;;;;;;;5060132;28;20474;-78
2021/06/05 12:45:45;;;;;;;1.50;0.70;;;;;;;;;;5062067;28;20036;-78
2021/06/05 12:48:15;;;;;;;0.70;0.65;;;;;;;;;;5077996;28;20032;-78
2021/06/05 12:50:43;;;;;;;2.08;0.95;;;;;;;;;;5061031;28;20031;-77
2021/06/05 12:53:15;;;;;;;2.15;0.90;;;;;;;;;;5078212;28;20060;-78
2021/06/05 12:55:43;;;;;;;0.68;0.60;;;;;;;;;;5061629;28;20481;-79
2021/06/05 12:58:10;;;;;;;2.80;1.15;;;;;;;;;;5062315;28;20085;-78
2021/06/05 13:00:47;;;;;;;2.65;0.80;;;;;;;;;;5054252;28;20040;-79
2021/06/05 13:03:13;;;;;;;2.38;0.85;;;;;;;;;;5060835;28;20025;-79
2021/06/05 13:05:40;;;;;;;1.30;0.85;;;;;;;;;;5077470;28;20024;-79
2021/06/05 13:08:11;;;;;;;3.05;0.90;;;;;;;;;;5062527;28;20032;-77
2021/06/05 13:10:44;;;;;;;2.10;0.90;;;;;;;;;;5064039;28;20032;-79
2021/06/05 13:13:15;;;;;;;0.85;0.50;;;;;;;;;;5075834;28;20059;-79
2021/06/05 13:15:46;;;;;;;1.00;0.90;;;;;;;;;;5073361;22;20046;-80
2021/06/05 13:18:13;;;;;;;0.50;0.50;;;;;;;;;;5020529;28;20411;-79
2021/06/05 13:20:42;;;;;;;1.50;0.77;;;;;;;;;;5020006;28;20083;-80
2021/06/05 13:23:12;;;;;;;3.33;0.77;;;;;;;;;;5020225;28;20018;-81
2021/06/05 13:25:39;;;;;;;0.90;0.70;;;;;;;;;;5028406;28;20032;-81
2021/06/05 13:28:07;;;;;;;2.65;1.20;;;;;;;;;;5021563;28;20512;-79
2021/06/05 13:30:33;;;;;;;0.70;0.70;;;;;;;;;;5027227;28;20439;-79
2021/06/05 13:32:59;;;;;;;1.08;0.70;;;;;;;;;;5049332;28;20386;-81
2021/06/05 13:35:34;;;;;;;1.17;0.80;;;;;;;;;;5040337;28;20040;-78
2021/06/05 13:38:02;;;;;;;2.33;0.95;;;;;;;;;;5058332;28;20056;-80
2021/06/05 13:40:28;;;;;;;0.60;0.60;;;;;;;;;;5056256;28;20030;-82
2021/06/05 13:42:55;;;;;;;2.08;0.75;;;;;;;;;;5039531;28;20090;-81
2021/06/05 13:45:23;;;;;;;1.13;0.90;;;;;;;;;;5040292;28;20029;-79
2021/06/05 13:47:49;;;;;;;1.75;0.90;;;;;;;;;;5039662;28;20117;-80
2021/06/05 13:50:17;;;;;;;2.33;0.80;;;;;;;;;;5038456;28;20033;-80
2021/06/05 13:52:43;;;;;;;1.60;0.90;;;;;;;;;;5038539;28;20040;-80
2021/06/05 13:55:35;;;;;;;1.40;0.90;;;;;;;;;;5052405;28;20025;-80
2021/06/05 13:58:02;;;;;;;2.70;2.08;;;;;;;;;;5042297;28;20045;-81
2021/06/05 14:00:29;;;;;;;1.27;0.90;;;;;;;;;;5033200;28;20085;-80
2021/06/05 14:02:55;;;;;;;3.83;1.48;;;;;;;;;;5055317;28;20022;-80
2021/06/05 14:05:22;;;;;;;1.40;1.15;;;;;;;;;;5031509;28;20034;-81
2021/06/05 14:07:48;;;;;;;1.88;0.80;;;;;;;;;;5030690;28;20125;-81
2021/06/05 14:10:15;;;;;;;2.65;1.00;;;;;;;;;;5020666;28;20087;-79
2021/06/05 14:12:42;;;;;;;0.60;0.60;;;;;;;;;;5017772;28;20056;-78
2021/06/05 14:15:29;;;;;;;4.10;1.20;;;;;;;;;;5018640;28;20053;-79
2021/06/05 14:17:56;;;;;;;2.00;0.90;;;;;;;;;;5021588;28;20034;-79
2021/06/05 14:20:23;;;;;;;1.60;0.80;;;;;;;;;;5020278;28;20072;-80
2021/06/05 14:22:49;;;;;;;0.73;0.57;;;;;;;;;;5036290;28;20054;-81
2021/06/05 14:25:16;;;;;;;2.47;0.80;;;;;;;;;;5037423;28;20474;-81
2021/06/05 14:27:42;;;;;;;2.78;0.77;;;;;;;;;;5038178;28;20034;-80
2021/06/05 14:30:10;;;;;;;1.20;0.65;;;;;;;;;;5038517;28;20053;-80
2021/06/05 14:32:36;;;;;;;3.22;0.93;;;;;;;;;;5047235;28;20410;-81
2021/06/05 14:35:03;;;;;;;1.40;0.70;;;;;;;;;;5047726;28;20098;-80
2021/06/05 14:37:29;;;;;;;1.40;1.00;;;;;;;;;;5052168;28;20183;-80
2021/06/05 14:39:55;;;;;;;1.98;0.70;;;;;;;;;;5053915;28;20104;-80
2021/06/05 14:42:21;;;;;;;0.90;0.77;;;;;;;;;;5052900;28;20018;-80
2021/06/05 14:44:47;;;;;;;1.55;1.08;;;;;;;;;;5052797;28;20036;-80
2021/06/05 14:47:15;;;;;;;0.80;0.70;;;;;;;;;;5037433;28;20026;-80
2021/06/05 14:49:41;;;;;;;0.98;0.98;;;;;;;;;;5037961;28;20076;-80
2021/06/05 14:52:07;;;;;;;2.05;0.90;;;;;;;;;;5052326;28;20068;-80
2021/06/05 14:54:33;;;;;;;2.85;1.02;;;;;;;;;;5036858;28;20029;-80